sensor_id;sensor_type;location;lat;lon;timestamp;P1;durP1;ratioP1;P2;durP2;ratioP2
14247;SDS011;7208;49.826;6.004;2023-05-15T00:00:12;26.10;;;19.37;;
14247;SDS011;7208;49.826;6.004;2023-05-15T00:02:39;26.83;;;19.70;;
14247;SDS011;7208;49.826;6.004;2023-05-15T00:05:05;27.77;;;20.63;;
14247;SDS011;7208;49.826;6.004;2023-05-15T00:07:32;27.70;;;20.53;;
14247;SDS011;7208;49.826;6.004;2023-05-15T00:09:58;31.00;;;20.80;;
14247;SDS011;7208;49.826;6.004;2023-05-15T00:12:24;32.43;;;21.50;;
14247;SDS011;7208;49.826;6.004;2023-05-15T00:14:50;30.37;;;21.77;;
14247;SDS011;7208;49.826;6.004;2023-05-15T00:17:17;26.40;;;20.60;;
14247;SDS011;7208;49.826;6.004;2023-05-15T00:19:43;32.67;;;21.90;;
14247;SDS011;7208;49.826;6.004;2023-05-15T00:22:09;34.00;;;21.67;;
14247;SDS011;7208;49.826;6.004;2023-05-15T00:24:35;33.20;;;22.73;;
14247;SDS011;7208;49.826;6.004;2023-05-15T00:27:01;34.50;;;23.80;;
14247;SDS011;7208;49.826;6.004;2023-05-15T00:29:27;31.20;;;23.27;;
14247;SDS011;7208;49.826;6.004;2023-05-15T00:31:53;34.57;;;23.63;;
14247;SDS011;7208;49.826;6.004;2023-05-15T00:34:20;37.37;;;23.57;;
14247;SDS011;7208;49.826;6.004;2023-05-15T00:36:47;34.07;;;23.47;;
14247;SDS011;7208;49.826;6.004;2023-05-15T00:39:13;35.13;;;23.10;;
14247;SDS011;7208;49.826;6.004;2023-05-15T00:41:39;32.50;;;23.00;;
14247;SDS011;7208;49.826;6.004;2023-05-15T00:44:05;33.27;;;22.07;;
14247;SDS011;7208;49.826;6.004;2023-05-15T00:46:31;30.93;;;22.60;;
14247;SDS011;7208;49.826;6.004;2023-05-15T00:48:59;36.57;;;24.60;;
14247;SDS011;7208;49.826;6.004;2023-05-15T00:51:26;40.00;;;24.53;;
14247;SDS011;7208;49.826;6.004;2023-05-15T00:53:52;34.60;;;22.70;;
14247;SDS011;7208;49.826;6.004;2023-05-15T00:56:19;40.40;;;23.90;;
14247;SDS011;7208;49.826;6.004;2023-05-15T00:58:45;36.37;;;24.03;;
14247;SDS011;7208;49.826;6.004;2023-05-15T01:01:13;33.23;;;23.60;;
14247;SDS011;7208;49.826;6.004;2023-05-15T01:03:39;35.60;;;23.80;;
14247;SDS011;7208;49.826;6.004;2023-05-15T01:06:05;38.53;;;24.40;;
14247;SDS011;7208;49.826;6.004;2023-05-15T01:10:57;39.83;;;23.43;;
14247;SDS011;7208;49.826;6.004;2023-05-15T01:13:24;43.07;;;25.90;;
14247;SDS011;7208;49.826;6.004;2023-05-15T01:15:50;41.10;;;25.13;;
14247;SDS011;7208;49.826;6.004;2023-05-15T01:18:16;38.50;;;25.33;;
14247;SDS011;7208;49.826;6.004;2023-05-15T01:23:14;42.87;;;26.80;;
14247;SDS011;7208;49.826;6.004;2023-05-15T01:26:04;39.30;;;25.43;;
14247;SDS011;7208;49.826;6.004;2023-05-15T01:28:30;44.13;;;25.07;;
14247;SDS011;7208;49.826;6.004;2023-05-15T01:30:56;41.33;;;25.37;;
14247;SDS011;7208;49.826;6.004;2023-05-15T01:33:26;39.83;;;25.23;;
14247;SDS011;7208;49.826;6.004;2023-05-15T01:35:55;42.50;;;27.63;;
14247;SDS011;7208;49.826;6.004;2023-05-15T01:38:29;42.57;;;26.93;;
14247;SDS011;7208;49.826;6.004;2023-05-15T01:40:56;41.73;;;25.87;;
14247;SDS011;7208;49.826;6.004;2023-05-15T01:43:26;42.00;;;24.97;;
14247;SDS011;7208;49.826;6.004;2023-05-15T01:45:54;41.77;;;26.73;;
14247;SDS011;7208;49.826;6.004;2023-05-15T01:48:20;47.07;;;26.60;;
14247;SDS011;7208;49.826;6.004;2023-05-15T01:50:47;47.07;;;27.80;;
14247;SDS011;7208;49.826;6.004;2023-05-15T01:53:14;41.67;;;28.67;;
14247;SDS011;7208;49.826;6.004;2023-05-15T01:55:40;46.07;;;29.13;;
14247;SDS011;7208;49.826;6.004;2023-05-15T01:58:06;47.97;;;28.67;;
14247;SDS011;7208;49.826;6.004;2023-05-15T02:00:33;46.20;;;28.80;;
14247;SDS011;7208;49.826;6.004;2023-05-15T02:02:59;47.37;;;28.10;;
14247;SDS011;7208;49.826;6.004;2023-05-15T02:05:25;40.73;;;27.17;;
14247;SDS011;7208;49.826;6.004;2023-05-15T02:07:51;45.43;;;28.70;;
14247;SDS011;7208;49.826;6.004;2023-05-15T02:10:17;51.53;;;29.07;;
14247;SDS011;7208;49.826;6.004;2023-05-15T02:12:44;47.50;;;29.50;;
14247;SDS011;7208;49.826;6.004;2023-05-15T02:15:10;45.37;;;28.20;;
14247;SDS011;7208;49.826;6.004;2023-05-15T02:17:36;45.87;;;28.27;;
14247;SDS011;7208;49.826;6.004;2023-05-15T02:20:03;44.07;;;28.87;;
14247;SDS011;7208;49.826;6.004;2023-05-15T02:22:32;49.00;;;29.93;;
14247;SDS011;7208;49.826;6.004;2023-05-15T02:24:58;49.87;;;29.63;;
14247;SDS011;7208;49.826;6.004;2023-05-15T02:27:28;46.97;;;28.33;;
14247;SDS011;7208;49.826;6.004;2023-05-15T02:35:25;48.33;;;28.17;;
14247;SDS011;7208;49.826;6.004;2023-05-15T02:37:57;40.97;;;26.53;;
14247;SDS011;7208;49.826;6.004;2023-05-15T02:40:25;45.07;;;26.73;;
14247;SDS011;7208;49.826;6.004;2023-05-15T02:42:52;42.60;;;26.87;;
14247;SDS011;7208;49.826;6.004;2023-05-15T02:45:19;51.40;;;28.00;;
14247;SDS011;7208;49.826;6.004;2023-05-15T02:47:46;41.83;;;26.47;;
14247;SDS011;7208;49.826;6.004;2023-05-15T02:50:15;47.90;;;27.23;;
14247;SDS011;7208;49.826;6.004;2023-05-15T02:52:41;44.50;;;27.07;;
14247;SDS011;7208;49.826;6.004;2023-05-15T02:55:08;52.80;;;29.87;;
14247;SDS011;7208;49.826;6.004;2023-05-15T02:57:34;50.50;;;28.50;;
14247;SDS011;7208;49.826;6.004;2023-05-15T03:00:00;51.50;;;30.73;;
14247;SDS011;7208;49.826;6.004;2023-05-15T03:02:26;50.63;;;28.97;;
14247;SDS011;7208;49.826;6.004;2023-05-15T03:04:52;46.77;;;28.80;;
14247;SDS011;7208;49.826;6.004;2023-05-15T03:07:18;49.23;;;29.53;;
14247;SDS011;7208;49.826;6.004;2023-05-15T03:09:44;50.67;;;30.73;;
14247;SDS011;7208;49.826;6.004;2023-05-15T03:12:10;47.97;;;29.27;;
14247;SDS011;7208;49.826;6.004;2023-05-15T03:14:36;59.17;;;30.93;;
14247;SDS011;7208;49.826;6.004;2023-05-15T03:17:02;54.77;;;30.30;;
14247;SDS011;7208;49.826;6.004;2023-05-15T03:19:28;54.63;;;28.83;;
14247;SDS011;7208;49.826;6.004;2023-05-15T03:21:55;48.93;;;29.57;;
14247;SDS011;7208;49.826;6.004;2023-05-15T03:24:21;51.80;;;31.07;;
14247;SDS011;7208;49.826;6.004;2023-05-15T03:26:47;49.27;;;29.03;;
14247;SDS011;7208;49.826;6.004;2023-05-15T03:29:13;52.90;;;30.77;;
14247;SDS011;7208;49.826;6.004;2023-05-15T03:31:39;58.50;;;31.00;;
14247;SDS011;7208;49.826;6.004;2023-05-15T03:34:05;53.97;;;30.13;;
14247;SDS011;7208;49.826;6.004;2023-05-15T03:36:31;54.47;;;30.07;;
14247;SDS011;7208;49.826;6.004;2023-05-15T03:38:57;54.67;;;31.63;;
14247;SDS011;7208;49.826;6.004;2023-05-15T03:41:23;54.07;;;32.27;;
14247;SDS011;7208;49.826;6.004;2023-05-15T03:43:51;48.70;;;29.03;;
14247;SDS011;7208;49.826;6.004;2023-05-15T03:46:17;52.53;;;30.57;;
14247;SDS011;7208;49.826;6.004;2023-05-15T03:48:43;56.33;;;30.67;;
14247;SDS011;7208;49.826;6.004;2023-05-15T03:51:10;54.17;;;30.13;;
14247;SDS011;7208;49.826;6.004;2023-05-15T03:53:36;48.93;;;31.07;;
14247;SDS011;7208;49.826;6.004;2023-05-15T03:56:02;52.87;;;29.67;;
14247;SDS011;7208;49.826;6.004;2023-05-15T03:58:28;51.53;;;30.37;;
14247;SDS011;7208;49.826;6.004;2023-05-15T04:00:56;52.60;;;29.80;;
14247;SDS011;7208;49.826;6.004;2023-05-15T04:03:22;51.90;;;29.37;;
14247;SDS011;7208;49.826;6.004;2023-05-15T04:05:48;54.13;;;30.60;;
14247;SDS011;7208;49.826;6.004;2023-05-15T04:08:14;53.93;;;30.67;;
14247;SDS011;7208;49.826;6.004;2023-05-15T04:10:40;46.30;;;29.50;;
14247;SDS011;7208;49.826;6.004;2023-05-15T04:13:06;54.37;;;31.00;;
14247;SDS011;7208;49.826;6.004;2023-05-15T04:15:32;55.00;;;30.57;;
14247;SDS011;7208;49.826;6.004;2023-05-15T04:17:58;47.50;;;28.90;;
14247;SDS011;7208;49.826;6.004;2023-05-15T04:20:24;44.93;;;29.60;;
14247;SDS011;7208;49.826;6.004;2023-05-15T04:22:51;48.63;;;28.30;;
14247;SDS011;7208;49.826;6.004;2023-05-15T04:25:17;45.93;;;28.67;;
14247;SDS011;7208;49.826;6.004;2023-05-15T04:27:44;47.83;;;29.37;;
14247;SDS011;7208;49.826;6.004;2023-05-15T04:30:10;49.80;;;29.93;;
14247;SDS011;7208;49.826;6.004;2023-05-15T04:32:37;49.77;;;29.23;;
14247;SDS011;7208;49.826;6.004;2023-05-15T04:35:03;51.53;;;30.27;;
14247;SDS011;7208;49.826;6.004;2023-05-15T04:37:30;47.97;;;31.43;;
14247;SDS011;7208;49.826;6.004;2023-05-15T04:39:56;47.63;;;30.50;;
14247;SDS011;7208;49.826;6.004;2023-05-15T04:42:22;43.43;;;29.33;;
14247;SDS011;7208;49.826;6.004;2023-05-15T04:44:48;45.10;;;28.87;;
14247;SDS011;7208;49.826;6.004;2023-05-15T04:47:15;52.17;;;31.27;;
14247;SDS011;7208;49.826;6.004;2023-05-15T04:49:41;42.33;;;28.40;;
14247;SDS011;7208;49.826;6.004;2023-05-15T04:52:07;48.10;;;30.17;;
14247;SDS011;7208;49.826;6.004;2023-05-15T04:54:33;45.90;;;28.03;;
14247;SDS011;7208;49.826;6.004;2023-05-15T04:56:59;43.30;;;28.93;;
14247;SDS011;7208;49.826;6.004;2023-05-15T04:59:25;43.63;;;27.47;;
14247;SDS011;7208;49.826;6.004;2023-05-15T05:01:54;42.10;;;27.07;;
14247;SDS011;7208;49.826;6.004;2023-05-15T05:04:21;41.20;;;28.90;;
14247;SDS011;7208;49.826;6.004;2023-05-15T05:06:47;47.00;;;29.03;;
14247;SDS011;7208;49.826;6.004;2023-05-15T05:09:13;39.63;;;25.70;;
14247;SDS011;7208;49.826;6.004;2023-05-15T05:11:40;46.27;;;28.80;;
14247;SDS011;7208;49.826;6.004;2023-05-15T05:14:08;39.63;;;25.70;;
14247;SDS011;7208;49.826;6.004;2023-05-15T05:16:34;38.97;;;26.43;;
14247;SDS011;7208;49.826;6.004;2023-05-15T05:19:00;42.03;;;27.17;;
14247;SDS011;7208;49.826;6.004;2023-05-15T05:21:26;44.07;;;27.03;;
14247;SDS011;7208;49.826;6.004;2023-05-15T05:23:52;38.97;;;26.23;;
14247;SDS011;7208;49.826;6.004;2023-05-15T05:26:18;38.63;;;25.03;;
14247;SDS011;7208;49.826;6.004;2023-05-15T05:28:44;41.77;;;26.37;;
14247;SDS011;7208;49.826;6.004;2023-05-15T05:31:10;42.57;;;26.43;;
14247;SDS011;7208;49.826;6.004;2023-05-15T05:33:36;47.00;;;28.93;;
14247;SDS011;7208;49.826;6.004;2023-05-15T05:36:03;42.03;;;25.80;;
14247;SDS011;7208;49.826;6.004;2023-05-15T05:38:29;39.77;;;25.53;;
14247;SDS011;7208;49.826;6.004;2023-05-15T05:40:56;38.97;;;24.80;;
14247;SDS011;7208;49.826;6.004;2023-05-15T05:43:24;36.97;;;25.07;;
14247;SDS011;7208;49.826;6.004;2023-05-15T05:45:50;45.00;;;24.87;;
14247;SDS011;7208;49.826;6.004;2023-05-15T05:48:16;38.57;;;24.93;;
14247;SDS011;7208;49.826;6.004;2023-05-15T05:50:42;42.50;;;26.23;;
14247;SDS011;7208;49.826;6.004;2023-05-15T05:53:08;43.77;;;26.23;;
14247;SDS011;7208;49.826;6.004;2023-05-15T05:55:34;37.40;;;24.37;;
14247;SDS011;7208;49.826;6.004;2023-05-15T05:58:00;41.77;;;26.03;;
14247;SDS011;7208;49.826;6.004;2023-05-15T06:00:26;43.13;;;27.20;;
14247;SDS011;7208;49.826;6.004;2023-05-15T06:02:53;38.77;;;25.53;;
14247;SDS011;7208;49.826;6.004;2023-05-15T06:05:20;37.37;;;24.50;;
14247;SDS011;7208;49.826;6.004;2023-05-15T06:07:47;39.10;;;23.77;;
14247;SDS011;7208;49.826;6.004;2023-05-15T06:10:13;41.93;;;24.33;;
14247;SDS011;7208;49.826;6.004;2023-05-15T06:12:39;33.17;;;23.03;;
14247;SDS011;7208;49.826;6.004;2023-05-15T06:15:05;39.33;;;24.87;;
14247;SDS011;7208;49.826;6.004;2023-05-15T06:17:32;37.33;;;24.23;;
14247;SDS011;7208;49.826;6.004;2023-05-15T06:19:58;38.40;;;23.40;;
14247;SDS011;7208;49.826;6.004;2023-05-15T06:22:24;38.50;;;24.37;;
14247;SDS011;7208;49.826;6.004;2023-05-15T06:24:50;38.90;;;24.87;;
14247;SDS011;7208;49.826;6.004;2023-05-15T06:27:16;36.57;;;23.60;;
14247;SDS011;7208;49.826;6.004;2023-05-15T06:29:42;35.43;;;24.97;;
14247;SDS011;7208;49.826;6.004;2023-05-15T06:32:08;33.77;;;23.27;;
14247;SDS011;7208;49.826;6.004;2023-05-15T06:34:34;35.40;;;24.17;;
14247;SDS011;7208;49.826;6.004;2023-05-15T06:37:00;36.00;;;23.27;;
14247;SDS011;7208;49.826;6.004;2023-05-15T06:39:26;29.40;;;22.33;;
14247;SDS011;7208;49.826;6.004;2023-05-15T06:41:52;32.60;;;22.60;;
14247;SDS011;7208;49.826;6.004;2023-05-15T06:44:23;31.77;;;21.90;;
14247;SDS011;7208;49.826;6.004;2023-05-15T06:46:49;26.57;;;19.53;;
14247;SDS011;7208;49.826;6.004;2023-05-15T06:49:15;26.23;;;20.10;;
14247;SDS011;7208;49.826;6.004;2023-05-15T06:51:41;29.83;;;20.40;;
14247;SDS011;7208;49.826;6.004;2023-05-15T06:54:06;29.80;;;19.40;;
14247;SDS011;7208;49.826;6.004;2023-05-15T06:56:32;25.37;;;18.47;;
14247;SDS011;7208;49.826;6.004;2023-05-15T06:58:58;20.87;;;17.63;;
14247;SDS011;7208;49.826;6.004;2023-05-15T07:01:24;22.30;;;18.40;;
14247;SDS011;7208;49.826;6.004;2023-05-15T07:03:51;23.70;;;18.10;;
14247;SDS011;7208;49.826;6.004;2023-05-15T07:06:17;21.57;;;18.43;;
14247;SDS011;7208;49.826;6.004;2023-05-15T07:08:43;24.50;;;18.90;;
14247;SDS011;7208;49.826;6.004;2023-05-15T07:11:09;21.40;;;18.50;;
14247;SDS011;7208;49.826;6.004;2023-05-15T07:13:35;24.03;;;17.40;;
14247;SDS011;7208;49.826;6.004;2023-05-15T07:16:01;21.57;;;18.37;;
14247;SDS011;7208;49.826;6.004;2023-05-15T07:18:27;21.13;;;17.53;;
14247;SDS011;7208;49.826;6.004;2023-05-15T07:20:53;25.93;;;18.83;;
14247;SDS011;7208;49.826;6.004;2023-05-15T07:23:19;22.80;;;18.43;;
14247;SDS011;7208;49.826;6.004;2023-05-15T07:25:45;23.20;;;18.67;;
14247;SDS011;7208;49.826;6.004;2023-05-15T07:28:11;23.10;;;18.83;;
14247;SDS011;7208;49.826;6.004;2023-05-15T07:30:37;21.10;;;18.37;;
14247;SDS011;7208;49.826;6.004;2023-05-15T07:33:03;25.63;;;18.37;;
14247;SDS011;7208;49.826;6.004;2023-05-15T07:35:29;22.10;;;17.73;;
14247;SDS011;7208;49.826;6.004;2023-05-15T07:37:56;22.03;;;17.47;;
14247;SDS011;7208;49.826;6.004;2023-05-15T07:40:22;21.63;;;17.73;;
14247;SDS011;7208;49.826;6.004;2023-05-15T07:42:48;22.33;;;17.77;;
14247;SDS011;7208;49.826;6.004;2023-05-15T07:45:14;21.70;;;17.00;;
14247;SDS011;7208;49.826;6.004;2023-05-15T07:47:46;22.87;;;17.57;;
14247;SDS011;7208;49.826;6.004;2023-05-15T07:50:13;20.10;;;16.87;;
14247;SDS011;7208;49.826;6.004;2023-05-15T07:52:39;19.20;;;15.77;;
14247;SDS011;7208;49.826;6.004;2023-05-15T07:55:06;18.43;;;15.53;;
14247;SDS011;7208;49.826;6.004;2023-05-15T07:57:32;20.27;;;17.10;;
14247;SDS011;7208;49.826;6.004;2023-05-15T07:59:58;20.97;;;15.57;;
14247;SDS011;7208;49.826;6.004;2023-05-15T08:02:24;18.40;;;16.27;;
14247;SDS011;7208;49.826;6.004;2023-05-15T08:04:50;17.50;;;15.70;;
14247;SDS011;7208;49.826;6.004;2023-05-15T08:07:16;16.80;;;15.13;;
14247;SDS011;7208;49.826;6.004;2023-05-15T08:09:42;17.13;;;15.43;;
14247;SDS011;7208;49.826;6.004;2023-05-15T08:12:15;16.83;;;15.00;;
14247;SDS011;7208;49.826;6.004;2023-05-15T08:14:41;20.33;;;15.37;;
14247;SDS011;7208;49.826;6.004;2023-05-15T08:17:07;16.30;;;14.27;;
14247;SDS011;7208;49.826;6.004;2023-05-15T08:19:33;16.37;;;13.50;;
14247;SDS011;7208;49.826;6.004;2023-05-15T08:21:59;16.17;;;14.47;;
14247;SDS011;7208;49.826;6.004;2023-05-15T08:24:25;15.67;;;13.97;;
14247;SDS011;7208;49.826;6.004;2023-05-15T08:26:51;15.37;;;13.77;;
14247;SDS011;7208;49.826;6.004;2023-05-15T08:29:17;15.23;;;13.73;;
14247;SDS011;7208;49.826;6.004;2023-05-15T08:31:43;15.47;;;13.97;;
14247;SDS011;7208;49.826;6.004;2023-05-15T08:34:09;14.70;;;13.27;;
14247;SDS011;7208;49.826;6.004;2023-05-15T08:36:35;15.50;;;12.43;;
14247;SDS011;7208;49.826;6.004;2023-05-15T08:39:01;13.33;;;12.13;;
14247;SDS011;7208;49.826;6.004;2023-05-15T08:41:29;13.57;;;12.27;;
14247;SDS011;7208;49.826;6.004;2023-05-15T08:43:57;13.27;;;11.90;;
14247;SDS011;7208;49.826;6.004;2023-05-15T08:46:23;13.37;;;12.07;;
14247;SDS011;7208;49.826;6.004;2023-05-15T08:48:49;12.60;;;11.33;;
14247;SDS011;7208;49.826;6.004;2023-05-15T08:51:16;13.93;;;11.97;;
14247;SDS011;7208;49.826;6.004;2023-05-15T08:53:42;11.37;;;10.33;;
14247;SDS011;7208;49.826;6.004;2023-05-15T08:56:09;10.70;;;9.70;;
14247;SDS011;7208;49.826;6.004;2023-05-15T08:58:35;11.87;;;10.67;;
14247;SDS011;7208;49.826;6.004;2023-05-15T09:01:02;10.30;;;9.27;;
14247;SDS011;7208;49.826;6.004;2023-05-15T09:03:28;8.13;;;7.37;;
14247;SDS011;7208;49.826;6.004;2023-05-15T09:05:54;4.67;;;4.27;;
14247;SDS011;7208;49.826;6.004;2023-05-15T09:08:21;4.60;;;4.20;;
14247;SDS011;7208;49.826;6.004;2023-05-15T09:10:48;6.00;;;4.70;;
14247;SDS011;7208;49.826;6.004;2023-05-15T09:13:14;6.23;;;5.40;;
14247;SDS011;7208;49.826;6.004;2023-05-15T09:15:41;5.00;;;4.60;;
14247;SDS011;7208;49.826;6.004;2023-05-15T09:18:07;7.17;;;4.40;;
14247;SDS011;7208;49.826;6.004;2023-05-15T09:20:34;5.37;;;4.90;;
14247;SDS011;7208;49.826;6.004;2023-05-15T09:23:01;6.03;;;5.33;;
14247;SDS011;7208;49.826;6.004;2023-05-15T09:25:31;5.53;;;4.97;;
14247;SDS011;7208;49.826;6.004;2023-05-15T09:27:58;5.67;;;5.17;;
14247;SDS011;7208;49.826;6.004;2023-05-15T09:30:28;4.57;;;4.17;;
14247;SDS011;7208;49.826;6.004;2023-05-15T09:32:58;7.30;;;5.57;;
14247;SDS011;7208;49.826;6.004;2023-05-15T09:35:35;5.77;;;5.23;;
14247;SDS011;7208;49.826;6.004;2023-05-15T09:38:02;4.50;;;4.10;;
14247;SDS011;7208;49.826;6.004;2023-05-15T09:40:29;5.33;;;4.83;;
14247;SDS011;7208;49.826;6.004;2023-05-15T09:42:55;4.93;;;4.60;;
14247;SDS011;7208;49.826;6.004;2023-05-15T09:45:22;5.90;;;4.87;;
14247;SDS011;7208;49.826;6.004;2023-05-15T09:47:53;6.67;;;4.87;;
14247;SDS011;7208;49.826;6.004;2023-05-15T09:50:23;5.50;;;5.00;;
14247;SDS011;7208;49.826;6.004;2023-05-15T09:52:50;5.10;;;4.70;;
14247;SDS011;7208;49.826;6.004;2023-05-15T09:55:16;6.10;;;5.50;;
14247;SDS011;7208;49.826;6.004;2023-05-15T09:57:44;5.97;;;5.43;;
14247;SDS011;7208;49.826;6.004;2023-05-15T10:00:10;6.10;;;5.50;;
14247;SDS011;7208;49.826;6.004;2023-05-15T10:02:39;6.20;;;5.60;;
14247;SDS011;7208;49.826;6.004;2023-05-15T10:05:05;5.50;;;5.00;;
14247;SDS011;7208;49.826;6.004;2023-05-15T10:07:32;5.87;;;5.30;;
14247;SDS011;7208;49.826;6.004;2023-05-15T10:09:59;5.97;;;5.23;;
14247;SDS011;7208;49.826;6.004;2023-05-15T10:12:26;8.63;;;5.10;;
14247;SDS011;7208;49.826;6.004;2023-05-15T10:14:53;15.60;;;6.00;;
14247;SDS011;7208;49.826;6.004;2023-05-15T10:17:20;4.90;;;4.50;;
14247;SDS011;7208;49.826;6.004;2023-05-15T10:19:50;4.93;;;4.53;;
14247;SDS011;7208;49.826;6.004;2023-05-15T10:22:21;7.40;;;5.00;;
14247;SDS011;7208;49.826;6.004;2023-05-15T10:24:59;5.27;;;4.77;;
14247;SDS011;7208;49.826;6.004;2023-05-15T10:27:26;5.73;;;4.57;;
14247;SDS011;7208;49.826;6.004;2023-05-15T10:29:53;4.93;;;4.30;;
14247;SDS011;7208;49.826;6.004;2023-05-15T10:32:21;4.47;;;4.07;;
14247;SDS011;7208;49.826;6.004;2023-05-15T10:34:47;5.13;;;4.73;;
14247;SDS011;7208;49.826;6.004;2023-05-15T10:37:13;4.50;;;4.07;;
14247;SDS011;7208;49.826;6.004;2023-05-15T10:39:39;5.40;;;4.17;;
14247;SDS011;7208;49.826;6.004;2023-05-15T10:42:06;5.83;;;4.20;;
14247;SDS011;7208;49.826;6.004;2023-05-15T10:44:32;4.27;;;3.97;;
14247;SDS011;7208;49.826;6.004;2023-05-15T10:46:58;4.37;;;3.97;;
14247;SDS011;7208;49.826;6.004;2023-05-15T10:49:25;4.50;;;4.10;;
14247;SDS011;7208;49.826;6.004;2023-05-15T10:51:51;5.20;;;3.77;;
14247;SDS011;7208;49.826;6.004;2023-05-15T10:54:17;5.80;;;4.17;;
14247;SDS011;7208;49.826;6.004;2023-05-15T10:57:04;5.17;;;3.97;;
14247;SDS011;7208;49.826;6.004;2023-05-15T10:59:31;4.70;;;3.57;;
14247;SDS011;7208;49.826;6.004;2023-05-15T11:02:05;4.60;;;4.23;;
14247;SDS011;7208;49.826;6.004;2023-05-15T11:04:43;3.43;;;3.13;;
14247;SDS011;7208;49.826;6.004;2023-05-15T11:07:13;3.70;;;3.40;;
14247;SDS011;7208;49.826;6.004;2023-05-15T11:09:39;3.80;;;3.40;;
14247;SDS011;7208;49.826;6.004;2023-05-15T11:12:09;3.90;;;3.60;;
14247;SDS011;7208;49.826;6.004;2023-05-15T11:14:36;3.57;;;3.37;;
14247;SDS011;7208;49.826;6.004;2023-05-15T11:17:03;3.50;;;3.20;;
14247;SDS011;7208;49.826;6.004;2023-05-15T11:19:31;3.10;;;2.90;;
14247;SDS011;7208;49.826;6.004;2023-05-15T11:21:57;2.90;;;2.67;;
14247;SDS011;7208;49.826;6.004;2023-05-15T11:27:02;2.50;;;2.30;;
14247;SDS011;7208;49.826;6.004;2023-05-15T11:29:29;3.10;;;2.80;;
14247;SDS011;7208;49.826;6.004;2023-05-15T11:31:55;2.97;;;2.70;;
14247;SDS011;7208;49.826;6.004;2023-05-15T11:34:32;4.20;;;2.97;;
14247;SDS011;7208;49.826;6.004;2023-05-15T11:36:58;2.70;;;2.50;;
14247;SDS011;7208;49.826;6.004;2023-05-15T11:39:28;4.07;;;3.03;;
14247;SDS011;7208;49.826;6.004;2023-05-15T11:41:54;5.17;;;3.30;;
14247;SDS011;7208;49.826;6.004;2023-05-15T11:44:21;3.50;;;2.67;;
14247;SDS011;7208;49.826;6.004;2023-05-15T11:46:47;2.90;;;2.70;;
14247;SDS011;7208;49.826;6.004;2023-05-15T11:49:14;3.60;;;3.30;;
14247;SDS011;7208;49.826;6.004;2023-05-15T11:51:41;3.17;;;2.90;;
14247;SDS011;7208;49.826;6.004;2023-05-15T11:54:08;3.20;;;2.90;;
14247;SDS011;7208;49.826;6.004;2023-05-15T11:56:41;2.83;;;2.63;;
14247;SDS011;7208;49.826;6.004;2023-05-15T11:59:11;3.80;;;3.00;;
14247;SDS011;7208;49.826;6.004;2023-05-15T12:01:41;4.13;;;3.07;;
14247;SDS011;7208;49.826;6.004;2023-05-15T12:04:11;3.53;;;3.23;;
14247;SDS011;7208;49.826;6.004;2023-05-15T12:06:38;3.43;;;3.13;;
14247;SDS011;7208;49.826;6.004;2023-05-15T12:09:05;3.77;;;3.40;;
14247;SDS011;7208;49.826;6.004;2023-05-15T12:11:32;3.37;;;2.97;;
14247;SDS011;7208;49.826;6.004;2023-05-15T12:13:58;3.53;;;3.23;;
14247;SDS011;7208;49.826;6.004;2023-05-15T12:16:24;4.13;;;2.87;;
14247;SDS011;7208;49.826;6.004;2023-05-15T12:18:51;3.70;;;3.00;;
14247;SDS011;7208;49.826;6.004;2023-05-15T12:21:17;3.20;;;2.90;;
14247;SDS011;7208;49.826;6.004;2023-05-15T12:23:50;3.20;;;2.80;;
14247;SDS011;7208;49.826;6.004;2023-05-15T12:26:19;3.13;;;2.83;;
14247;SDS011;7208;49.826;6.004;2023-05-15T12:28:47;3.93;;;2.90;;
14247;SDS011;7208;49.826;6.004;2023-05-15T12:31:13;3.10;;;2.80;;
14247;SDS011;7208;49.826;6.004;2023-05-15T12:33:39;3.10;;;2.47;;
14247;SDS011;7208;49.826;6.004;2023-05-15T12:36:05;2.83;;;2.63;;
14247;SDS011;7208;49.826;6.004;2023-05-15T12:38:31;2.77;;;2.57;;
14247;SDS011;7208;49.826;6.004;2023-05-15T12:40:58;3.67;;;2.50;;
14247;SDS011;7208;49.826;6.004;2023-05-15T12:43:25;5.33;;;2.40;;
14247;SDS011;7208;49.826;6.004;2023-05-15T12:45:52;2.87;;;2.30;;
14247;SDS011;7208;49.826;6.004;2023-05-15T12:48:18;2.43;;;2.23;;
14247;SDS011;7208;49.826;6.004;2023-05-15T12:50:45;2.17;;;1.97;;
14247;SDS011;7208;49.826;6.004;2023-05-15T12:53:14;3.00;;;2.27;;
14247;SDS011;7208;49.826;6.004;2023-05-15T12:55:41;3.13;;;1.87;;
14247;SDS011;7208;49.826;6.004;2023-05-15T12:58:09;2.10;;;2.00;;
14247;SDS011;7208;49.826;6.004;2023-05-15T13:00:42;2.80;;;2.17;;
14247;SDS011;7208;49.826;6.004;2023-05-15T13:03:11;2.23;;;2.03;;
14247;SDS011;7208;49.826;6.004;2023-05-15T13:05:38;2.70;;;2.50;;
14247;SDS011;7208;49.826;6.004;2023-05-15T13:08:06;2.63;;;2.43;;
14247;SDS011;7208;49.826;6.004;2023-05-15T13:10:33;3.70;;;2.27;;
14247;SDS011;7208;49.826;6.004;2023-05-15T13:12:59;8.43;;;2.50;;
14247;SDS011;7208;49.826;6.004;2023-05-15T13:17:58;2.20;;;1.90;;
14247;SDS011;7208;49.826;6.004;2023-05-15T13:20:25;2.50;;;1.90;;
14247;SDS011;7208;49.826;6.004;2023-05-15T13:22:51;2.77;;;2.30;;
14247;SDS011;7208;49.826;6.004;2023-05-15T13:25:18;5.70;;;2.87;;
14247;SDS011;7208;49.826;6.004;2023-05-15T13:27:44;13.80;;;5.87;;
14247;SDS011;7208;49.826;6.004;2023-05-15T13:30:11;2.17;;;1.97;;
14247;SDS011;7208;49.826;6.004;2023-05-15T13:32:37;2.40;;;2.20;;
14247;SDS011;7208;49.826;6.004;2023-05-15T13:35:03;3.33;;;2.27;;
14247;SDS011;7208;49.826;6.004;2023-05-15T13:37:29;2.40;;;2.20;;
14247;SDS011;7208;49.826;6.004;2023-05-15T13:39:56;4.93;;;2.03;;
14247;SDS011;7208;49.826;6.004;2023-05-15T13:42:22;3.63;;;2.33;;
14247;SDS011;7208;49.826;6.004;2023-05-15T13:44:48;4.10;;;1.97;;
14247;SDS011;7208;49.826;6.004;2023-05-15T13:47:14;2.37;;;2.13;;
14247;SDS011;7208;49.826;6.004;2023-05-15T13:49:40;2.87;;;2.20;;
14247;SDS011;7208;49.826;6.004;2023-05-15T13:52:06;2.13;;;1.70;;
14247;SDS011;7208;49.826;6.004;2023-05-15T13:54:32;2.17;;;2.07;;
14247;SDS011;7208;49.826;6.004;2023-05-15T13:56:58;2.83;;;2.47;;
14247;SDS011;7208;49.826;6.004;2023-05-15T13:59:25;2.30;;;2.10;;
14247;SDS011;7208;49.826;6.004;2023-05-15T14:01:51;2.93;;;2.50;;
14247;SDS011;7208;49.826;6.004;2023-05-15T14:04:17;3.30;;;3.00;;
14247;SDS011;7208;49.826;6.004;2023-05-15T14:06:44;4.60;;;2.97;;
14247;SDS011;7208;49.826;6.004;2023-05-15T14:09:10;4.87;;;3.57;;
14247;SDS011;7208;49.826;6.004;2023-05-15T14:11:36;7.63;;;3.10;;
14247;SDS011;7208;49.826;6.004;2023-05-15T14:14:02;4.13;;;2.90;;
14247;SDS011;7208;49.826;6.004;2023-05-15T14:16:28;3.53;;;3.20;;
14247;SDS011;7208;49.826;6.004;2023-05-15T14:18:54;3.83;;;3.43;;
14247;SDS011;7208;49.826;6.004;2023-05-15T14:21:21;3.43;;;2.90;;
14247;SDS011;7208;49.826;6.004;2023-05-15T14:23:47;3.17;;;2.97;;
14247;SDS011;7208;49.826;6.004;2023-05-15T14:26:13;4.00;;;3.53;;
14247;SDS011;7208;49.826;6.004;2023-05-15T14:28:39;3.23;;;2.90;;
14247;SDS011;7208;49.826;6.004;2023-05-15T14:31:05;4.27;;;2.90;;
14247;SDS011;7208;49.826;6.004;2023-05-15T14:33:31;4.10;;;3.23;;
14247;SDS011;7208;49.826;6.004;2023-05-15T14:35:57;3.37;;;3.07;;
14247;SDS011;7208;49.826;6.004;2023-05-15T14:38:25;3.97;;;3.57;;
14247;SDS011;7208;49.826;6.004;2023-05-15T14:40:51;3.90;;;3.50;;
14247;SDS011;7208;49.826;6.004;2023-05-15T14:43:17;4.67;;;3.30;;
14247;SDS011;7208;49.826;6.004;2023-05-15T14:45:43;6.60;;;3.80;;
14247;SDS011;7208;49.826;6.004;2023-05-15T14:48:09;4.83;;;3.90;;
14247;SDS011;7208;49.826;6.004;2023-05-15T14:50:35;4.00;;;3.70;;
14247;SDS011;7208;49.826;6.004;2023-05-15T14:53:01;5.27;;;4.27;;
14247;SDS011;7208;49.826;6.004;2023-05-15T14:55:27;4.83;;;4.43;;
14247;SDS011;7208;49.826;6.004;2023-05-15T14:57:53;4.07;;;3.53;;